Time;durP1;ratioP1;P1;durP2;ratioP2;P2;SDS_P1;SDS_P2;PMS_P1;PMS_P2;Temp;Humidity;BMP_temperature;BMP_pressure;BME280_temperature;BME280_humidity;BME280_pressure;Samples;Min_cycle;Max_cycle;Signal;HPM_P1;HPM_P2
2022/03/16 00:01:21;;;;;;;32.30;23.45;;;;;;;5.75;100.00;102335.78;5285074;28;20378;-69
2022/03/16 00:03:52;;;;;;;26.35;22.15;;;;;;;5.81;100.00;102330.34;5284658;28;20065;-68
2022/03/16 00:06:23;;;;;;;27.35;22.88;;;;;;;5.66;100.00;102331.81;5285966;28;20024;-68
2022/03/16 00:08:55;;;;;;;27.25;22.95;;;;;;;5.64;100.00;102324.97;5289012;28;20027;-68
2022/03/16 00:11:26;;;;;;;28.52;22.90;;;;;;;5.68;100.00;102334.31;5285352;28;20490;-69
2022/03/16 00:13:58;;;;;;;27.88;22.88;;;;;;;5.59;100.00;102325.16;5284888;28;20022;-69
2022/03/16 00:16:30;;;;;;;28.88;23.95;;;;;;;5.58;100.00;102333.88;5289185;28;20031;-69
2022/03/16 00:19:01;;;;;;;29.45;23.98;;;;;;;5.57;100.00;102337.38;5285942;28;20511;-68
2022/03/16 00:21:33;;;;;;;29.73;23.77;;;;;;;5.54;100.00;102337.50;5285265;28;20119;-68
2022/03/16 00:24:04;;;;;;;31.58;24.35;;;;;;;5.47;100.00;102334.28;5286886;28;20016;-68
2022/03/16 00:26:35;;;;;;;29.13;24.75;;;;;;;5.47;100.00;102330.84;5279432;28;20063;-68
2022/03/16 00:29:07;;;;;;;29.40;24.95;;;;;;;5.49;100.00;102342.00;5283749;28;20021;-68
2022/03/16 00:31:38;;;;;;;30.38;25.45;;;;;;;5.44;100.00;102337.00;5287067;28;20397;-69
2022/03/16 00:34:09;;;;;;;30.52;26.27;;;;;;;5.52;100.00;102347.94;5283956;28;20024;-68
2022/03/16 00:36:41;;;;;;;33.78;27.63;;;;;;;5.43;100.00;102343.13;5284478;28;20020;-69
2022/03/16 00:39:13;;;;;;;32.50;26.63;;;;;;;5.45;100.00;102337.84;5280315;28;20031;-70
2022/03/16 00:41:44;;;;;;;33.35;26.70;;;;;;;5.40;100.00;102334.59;5283566;28;20752;-68
2022/03/16 00:44:15;;;;;;;34.15;29.48;;;;;;;5.42;100.00;102332.75;5282249;28;20099;-68
2022/03/16 00:46:46;;;;;;;34.85;28.30;;;;;;;5.48;100.00;102332.53;5286145;28;20577;-68
2022/03/16 00:49:18;;;;;;;37.08;28.95;;;;;;;5.50;100.00;102331.56;5285280;28;20024;-68
2022/03/16 00:51:49;;;;;;;34.13;27.80;;;;;;;5.55;100.00;102329.63;5286645;28;20596;-68
2022/03/16 00:54:20;;;;;;;35.88;29.30;;;;;;;5.53;100.00;102330.59;5285884;28;20491;-68
2022/03/16 00:56:51;;;;;;;35.05;28.38;;;;;;;5.55;100.00;102329.63;5288093;28;20023;-69
2022/03/16 00:59:23;;;;;;;36.40;29.02;;;;;;;5.56;100.00;102333.06;5283915;28;20123;-68
2022/03/16 01:01:54;;;;;;;35.15;29.63;;;;;;;5.57;100.00;102333.03;5287082;28;20027;-68
2022/03/16 01:04:25;;;;;;;36.53;30.15;;;;;;;5.55;100.00;102332.22;5284036;28;20044;-68
2022/03/16 01:06:57;;;;;;;35.17;29.27;;;;;;;5.55;100.00;102327.03;5286842;28;20075;-69
2022/03/16 01:09:28;;;;;;;35.60;29.27;;;;;;;5.60;100.00;102332.03;5281224;28;20245;-68
2022/03/16 01:12:01;;;;;;;35.70;29.08;;;;;;;5.55;100.00;102327.03;5284190;28;20023;-68
2022/03/16 01:14:33;;;;;;;37.97;29.33;;;;;;;5.54;100.00;102321.91;5284869;28;20035;-69
2022/03/16 01:17:04;;;;;;;33.20;28.20;;;;;;;5.60;100.00;102321.63;5283413;28;20276;-69
2022/03/16 01:19:36;;;;;;;34.53;28.42;;;;;;;5.57;100.00;102320.03;5283374;28;20032;-69
2022/03/16 01:22:07;;;;;;;37.10;29.45;;;;;;;5.48;100.00;102322.97;5286766;28;20104;-68
2022/03/16 01:24:38;;;;;;;35.38;28.33;;;;;;;5.49;100.00;102319.50;5281279;28;20560;-68
2022/03/16 01:27:10;;;;;;;32.65;27.83;;;;;;;5.45;100.00;102323.09;5283451;28;20111;-68
2022/03/16 01:29:41;;;;;;;33.75;29.25;;;;;;;5.45;100.00;102315.28;5285205;28;20032;-69
2022/03/16 01:32:12;;;;;;;33.05;28.02;;;;;;;5.34;100.00;102314.88;5283168;28;20028;-69
2022/03/16 01:34:44;;;;;;;34.40;26.85;;;;;;;5.34;100.00;102320.06;5286288;28;20462;-68
2022/03/16 01:37:15;;;;;;;28.85;25.45;;;;;;;5.42;100.00;102324.97;5282718;28;20111;-68
2022/03/16 01:39:46;;;;;;;32.30;25.50;;;;;;;5.37;100.00;102319.94;5288711;28;20028;-69
2022/03/16 01:42:18;;;;;;;31.00;26.08;;;;;;;5.37;100.00;102314.75;5288047;28;20028;-68
2022/03/16 01:44:51;;;;;;;30.98;26.90;;;;;;;5.39;100.00;102301.72;5288019;28;20039;-69
2022/03/16 01:47:24;;;;;;;33.15;26.08;;;;;;;5.35;100.00;102293.19;5287335;28;20028;-68
2022/03/16 01:49:55;;;;;;;34.53;28.63;;;;;;;5.34;100.00;102275.88;5289852;28;20749;-68
2022/03/16 01:52:29;;;;;;;31.60;27.10;;;;;;;5.38;100.00;102280.09;5292214;28;20066;-69
2022/03/16 01:55:04;;;;;;;;;;;;;;;5.79;100.00;102282.72;5287149;28;20101;-68
2022/03/16 01:57:40;;;;;;;31.60;25.70;;;;;;;5.43;100.00;102282.50;5283677;28;20339;-69
2022/03/16 02:00:13;;;;;;;31.30;25.25;;;;;;;5.35;100.00;102288.00;5289563;28;20347;-68
2022/03/16 02:02:46;;;;;;;29.55;25.20;;;;;;;5.31;100.00;102283.84;5288501;28;20472;-68
2022/03/16 02:05:17;;;;;;;32.65;25.63;;;;;;;5.33;100.00;102279.41;5287860;28;20078;-68
2022/03/16 02:07:48;;;;;;;31.00;25.23;;;;;;;5.33;100.00;102276.81;5285728;28;20047;-69
2022/03/16 02:10:21;;;;;;;32.75;25.60;;;;;;;5.36;100.00;102277.53;5288903;28;20484;-68
2022/03/16 02:12:53;;;;;;;30.27;25.27;;;;;;;5.36;100.00;102271.50;5284881;28;20084;-68
2022/03/16 02:15:24;;;;;;;36.83;26.58;;;;;;;5.33;100.00;102267.25;5289811;28;20036;-68
2022/03/16 02:17:56;;;;;;;33.22;24.48;;;;;;;5.30;100.00;102263.94;5288337;28;20021;-68
2022/03/16 02:20:27;;;;;;;31.85;24.10;;;;;;;5.28;100.00;102273.56;5287853;28;20085;-69
2022/03/16 02:23:01;;;;;;;29.15;24.05;;;;;;;5.31;100.00;102278.63;5286388;28;20024;-68
2022/03/16 02:25:34;;;;;;;27.65;22.85;;;;;;;5.33;100.00;102271.59;5284350;28;20036;-68
2022/03/16 02:28:05;;;;;;;29.25;22.50;;;;;;;5.25;100.00;102269.31;5285287;28;20063;-69
2022/03/16 02:30:36;;;;;;;27.58;22.25;;;;;;;5.25;100.00;102273.66;5290253;28;20451;-68
2022/03/16 02:33:08;;;;;;;29.27;23.33;;;;;;;5.25;100.00;102276.25;5287908;28;20402;-68
2022/03/16 02:35:39;;;;;;;29.02;23.25;;;;;;;5.25;100.00;102279.72;5289956;28;20107;-68
2022/03/16 02:38:11;;;;;;;26.63;22.90;;;;;;;5.22;100.00;102285.03;5286403;28;20078;-68
2022/03/16 02:40:42;;;;;;;26.58;22.38;;;;;;;5.20;100.00;102275.63;5285489;28;20112;-68
2022/03/16 02:43:13;;;;;;;29.35;23.92;;;;;;;5.21;100.00;102277.28;5283401;28;20093;-69
2022/03/16 02:45:45;;;;;;;28.42;23.75;;;;;;;5.21;100.00;102274.69;5288515;28;20055;-68
2022/03/16 02:48:16;;;;;;;27.55;23.25;;;;;;;5.19;100.00;102274.78;5288570;28;20039;-69
2022/03/16 02:50:48;;;;;;;27.70;22.15;;;;;;;5.18;100.00;102272.22;5287123;28;20016;-69
2022/03/16 02:53:20;;;;;;;26.88;22.55;;;;;;;5.17;100.00;102260.13;5286283;28;20036;-70
2022/03/16 02:55:51;;;;;;;26.48;23.10;;;;;;;5.16;100.00;102261.91;5287732;28;20145;-68
2022/03/16 02:58:22;;;;;;;27.65;23.13;;;;;;;5.20;100.00;102250.47;5281815;28;20083;-69
2022/03/16 03:00:54;;;;;;;26.05;22.35;;;;;;;5.20;100.00;102260.03;5282165;28;20475;-69
2022/03/16 03:03:25;;;;;;;27.10;22.95;;;;;;;5.16;100.00;102245.47;5287823;28;20051;-68
2022/03/16 03:05:56;;;;;;;25.88;22.67;;;;;;;5.11;100.00;102240.44;5286212;28;20114;-69
2022/03/16 03:08:27;;;;;;;24.27;21.65;;;;;;;5.13;100.00;102247.25;5284285;28;20070;-68
2022/03/16 03:11:00;;;;;;;26.83;22.75;;;;;;;5.12;100.00;102250.78;5287402;28;20020;-68
2022/03/16 03:13:32;;;;;;;24.45;21.60;;;;;;;5.10;100.00;102251.72;5285723;28;20036;-68
2022/03/16 03:16:03;;;;;;;28.70;22.20;;;;;;;5.02;100.00;102243.41;5285405;28;20092;-68
2022/03/16 03:18:35;;;;;;;25.45;21.83;;;;;;;4.99;100.00;102246.94;5290261;28;20450;-68
2022/03/16 03:21:10;;;;;;;26.73;22.73;;;;;;;5.00;100.00;102251.25;5286594;28;20028;-68
2022/03/16 03:23:41;;;;;;;25.67;22.67;;;;;;;4.99;100.00;102252.16;5286207;28;20047;-68
2022/03/16 03:26:12;;;;;;;27.05;23.10;;;;;;;4.97;100.00;102251.38;5282776;28;20019;-67
2022/03/16 03:28:43;;;;;;;25.42;22.23;;;;;;;4.97;100.00;102255.72;5288237;28;20048;-68
2022/03/16 03:31:15;;;;;;;25.60;21.77;;;;;;;4.92;100.00;102262.84;5287433;28;20033;-68
2022/03/16 03:33:46;;;;;;;26.23;22.60;;;;;;;4.90;100.00;102259.47;5284389;28;20063;-68
2022/03/16 03:36:17;;;;;;;26.95;22.20;;;;;;;4.91;100.00;102255.97;5286798;28;20043;-68
2022/03/16 03:38:48;;;;;;;25.73;22.80;;;;;;;4.94;100.00;102253.25;5287042;28;20021;-68
2022/03/16 03:41:20;;;;;;;28.13;22.90;;;;;;;4.95;100.00;102255.78;5284517;28;20039;-68
2022/03/16 03:43:51;;;;;;;27.08;22.10;;;;;;;4.94;100.00;102254.09;5287102;28;20492;-69
2022/03/16 03:46:22;;;;;;;28.30;22.70;;;;;;;4.90;100.00;102257.72;5283748;28;20535;-68
2022/03/16 03:48:54;;;;;;;25.73;22.77;;;;;;;4.93;100.00;102255.00;5287311;28;20094;-68
2022/03/16 03:51:25;;;;;;;25.85;22.00;;;;;;;4.91;100.00;102249.00;5287747;28;20016;-68
2022/03/16 03:53:56;;;;;;;26.63;21.17;;;;;;;4.95;100.00;102253.19;5286755;28;20095;-68
2022/03/16 03:56:27;;;;;;;26.05;23.13;;;;;;;4.95;100.00;102254.94;5283402;28;20044;-68
2022/03/16 03:58:59;;;;;;;25.33;20.65;;;;;;;4.94;100.00;102256.69;5285689;28;20428;-69
2022/03/16 04:01:30;;;;;;;28.05;23.42;;;;;;;4.93;100.00;102249.81;5285267;28;20086;-68
2022/03/16 04:04:01;;;;;;;26.48;22.88;;;;;;;4.90;100.00;102257.72;5286495;28;20031;-68
2022/03/16 04:06:34;;;;;;;24.23;20.65;;;;;;;4.95;100.00;102260.13;5282725;28;20488;-68
2022/03/16 04:09:05;;;;;;;31.20;23.98;;;;;;;4.92;100.00;102253.28;5287525;28;20020;-68
2022/03/16 04:11:37;;;;;;;25.92;22.38;;;;;;;4.91;100.00;102241.22;5288109;28;20027;-67
2022/03/16 04:14:08;;;;;;;28.52;23.15;;;;;;;4.86;100.00;102238.81;5287495;28;20028;-68
2022/03/16 04:16:39;;;;;;;27.73;24.17;;;;;;;4.91;100.00;102243.81;5282023;28;20122;-68
2022/03/16 04:19:11;;;;;;;29.52;23.75;;;;;;;4.92;100.00;102240.31;5285429;28;20108;-67
2022/03/16 04:21:42;;;;;;;29.00;25.27;;;;;;;4.95;100.00;102249.72;5282186;28;20027;-68
2022/03/16 04:24:14;;;;;;;27.33;22.80;;;;;;;4.96;100.00;102244.47;5284625;28;20043;-68
2022/03/16 04:26:45;;;;;;;28.77;23.70;;;;;;;4.99;100.00;102246.09;5287630;28;20544;-68
2022/03/16 04:29:16;;;;;;;28.27;23.00;;;;;;;5.00;100.00;102240.88;5285984;28;20016;-68
2022/03/16 04:31:47;;;;;;;29.25;23.85;;;;;;;4.97;100.00;102247.94;5281608;28;20025;-69
2022/03/16 04:34:19;;;;;;;30.27;24.25;;;;;;;4.97;100.00;102246.19;5283232;28;20115;-67
2022/03/16 04:36:50;;;;;;;27.55;24.40;;;;;;;4.97;100.00;102245.34;5285994;28;20024;-69
2022/03/16 04:39:21;;;;;;;26.40;23.30;;;;;;;4.96;100.00;102241.88;5286471;28;20039;-68
2022/03/16 04:41:53;;;;;;;29.00;24.05;;;;;;;4.97;100.00;102240.16;5284358;28;20456;-67
2022/03/16 04:44:24;;;;;;;32.58;26.52;;;;;;;4.96;100.00;102246.22;5285951;28;20384;-68
2022/03/16 04:46:55;;;;;;;31.10;25.15;;;;;;;4.93;100.00;102249.81;5287579;28;20038;-68
2022/03/16 04:49:27;;;;;;;28.52;25.50;;;;;;;4.93;100.00;102244.63;5283643;28;20111;-68
2022/03/16 04:51:58;;;;;;;29.65;25.95;;;;;;;4.90;100.00;102241.28;5283084;28;20089;-68
2022/03/16 04:54:29;;;;;;;27.63;23.95;;;;;;;4.93;100.00;102242.03;5278012;28;20897;-68
2022/03/16 04:57:04;;;;;;;31.45;26.38;;;;;;;4.97;100.00;102240.16;5285332;28;20029;-69
2022/03/16 04:59:35;;;;;;;30.70;25.00;;;;;;;4.91;100.00;102236.03;5284304;28;20046;-69
2022/03/16 05:02:06;;;;;;;29.02;25.17;;;;;;;4.89;100.00;102253.44;5285850;28;20028;-68
2022/03/16 05:04:38;;;;;;;32.70;26.63;;;;;;;4.87;100.00;102250.88;5280695;28;20035;-68
2022/03/16 05:07:09;;;;;;;30.13;24.92;;;;;;;4.86;100.00;102256.13;5281574;28;20020;-68
2022/03/16 05:09:40;;;;;;;30.42;26.35;;;;;;;4.88;100.00;102256.91;5283422;28;20035;-67
2022/03/16 05:12:11;;;;;;;29.05;24.67;;;;;;;4.92;100.00;102244.66;5284786;28;20111;-68
2022/03/16 05:14:43;;;;;;;31.50;27.17;;;;;;;4.87;100.00;102242.25;5284642;28;20443;-68
2022/03/16 05:17:14;;;;;;;29.40;25.25;;;;;;;4.92;100.00;102249.84;5285670;28;20036;-69
2022/03/16 05:19:45;;;;;;;28.63;25.50;;;;;;;4.93;100.00;102238.56;5287952;28;20028;-68
2022/03/16 05:22:16;;;;;;;28.02;24.70;;;;;;;4.91;100.00;102238.63;5290215;28;20129;-68
2022/03/16 05:24:48;;;;;;;32.70;25.67;;;;;;;4.90;100.00;102241.28;5287853;28;20290;-68
2022/03/16 05:27:20;;;;;;;26.95;23.45;;;;;;;4.87;100.00;102237.03;5288914;28;20089;-69
2022/03/16 05:29:51;;;;;;;27.65;24.65;;;;;;;4.88;100.00;102230.94;5285349;28;20031;-69
2022/03/16 05:32:22;;;;;;;26.77;23.88;;;;;;;4.89;100.00;102230.06;5285536;28;20401;-68
2022/03/16 05:34:54;;;;;;;28.15;23.35;;;;;;;4.92;100.00;102229.06;5287360;28;20025;-69
2022/03/16 05:37:25;;;;;;;27.65;24.45;;;;;;;4.88;100.00;102230.94;5291634;28;20071;-68
2022/03/16 05:39:56;;;;;;;28.67;24.15;;;;;;;4.90;100.00;102231.75;5287908;28;20035;-68
2022/03/16 05:42:27;;;;;;;27.90;23.08;;;;;;;4.88;100.00;102225.75;5286878;28;20030;-68
2022/03/16 05:44:59;;;;;;;26.80;23.58;;;;;;;4.86;100.00;102237.97;5286438;28;20503;-70
2022/03/16 05:47:30;;;;;;;25.73;22.98;;;;;;;4.91;100.00;102241.22;5285477;28;20058;-69
2022/03/16 05:50:03;;;;;;;26.70;23.70;;;;;;;4.88;100.00;102238.72;5286294;28;20128;-69
2022/03/16 05:52:35;;;;;;;27.88;23.70;;;;;;;4.89;100.00;102240.44;5288609;28;20056;-68
2022/03/16 05:55:07;;;;;;;28.52;23.65;;;;;;;4.90;100.00;102249.91;5287399;28;20502;-69
2022/03/16 05:57:40;;;;;;;27.33;24.20;;;;;;;4.92;100.00;102248.09;5289103;28;20049;-69
2022/03/16 06:00:14;;;;;;;26.92;22.50;;;;;;;4.91;100.00;102254.19;5287529;28;20290;-67
2022/03/16 06:02:47;;;;;;;25.27;22.10;;;;;;;4.96;100.00;102243.63;5291180;28;20028;-68
2022/03/16 06:05:19;;;;;;;24.75;22.05;;;;;;;4.97;100.00;102253.13;5288872;28;20094;-68
2022/03/16 06:07:50;;;;;;;25.40;21.77;;;;;;;4.96;100.00;102257.47;5290045;28;20390;-69
2022/03/16 06:10:21;;;;;;;26.42;22.52;;;;;;;4.95;100.00;102260.97;5288486;28;20017;-70
2022/03/16 06:12:53;;;;;;;27.60;21.90;;;;;;;5.02;100.00;102259.81;5286226;28;20020;-69
2022/03/16 06:15:26;;;;;;;25.13;21.42;;;;;;;5.02;100.00;102267.63;5291182;28;20031;-70
2022/03/16 06:17:58;;;;;;;26.85;22.02;;;;;;;5.05;100.00;102264.06;5288547;28;20112;-68
2022/03/16 06:20:30;;;;;;;26.38;21.95;;;;;;;5.08;100.00;102267.41;5287132;28;20024;-69
2022/03/16 06:23:04;;;;;;;23.85;20.75;;;;;;;5.06;100.00;102257.97;5285895;28;20076;-66
2022/03/16 06:25:36;;;;;;;25.77;21.77;;;;;;;5.07;100.00;102252.69;5289201;28;20103;-69
2022/03/16 06:28:07;;;;;;;26.10;22.02;;;;;;;5.11;100.00;102262.09;5287050;28;20025;-69
2022/03/16 06:30:38;;;;;;;26.60;21.35;;;;;;;5.15;100.00;102267.13;5284310;28;20033;-68
2022/03/16 06:33:10;;;;;;;27.55;21.75;;;;;;;5.17;100.00;102265.34;5285768;28;20474;-69
2022/03/16 06:35:41;;;;;;;27.70;22.50;;;;;;;5.18;100.00;102256.63;5289331;28;20032;-69
2022/03/16 06:38:12;;;;;;;26.13;20.85;;;;;;;5.20;100.00;102267.81;5285120;28;20109;-67
2022/03/16 06:40:44;;;;;;;29.13;21.13;;;;;;;5.21;100.00;102267.75;5283400;28;20039;-69
2022/03/16 06:43:15;;;;;;;24.95;20.73;;;;;;;5.23;100.00;102272.91;5289133;28;20034;-68
2022/03/16 06:45:47;;;;;;;25.65;20.52;;;;;;;5.23;100.00;102265.94;5288648;28;20020;-69
2022/03/16 06:48:23;;;;;;;24.70;20.92;;;;;;;5.25;100.00;102245.94;5284886;28;20089;-69
2022/03/16 06:50:54;;;;;;;26.27;20.70;;;;;;;5.26;100.00;102238.97;5285819;28;20105;-68
2022/03/16 06:53:27;;;;;;;23.38;19.77;;;;;;;5.32;100.00;102242.19;5285961;28;20024;-69
2022/03/16 06:55:59;;;;;;;22.58;19.48;;;;;;;5.29;100.00;102218.06;5286745;28;20035;-68
2022/03/16 06:58:31;;;;;;;27.15;20.52;;;;;;;5.43;100.00;102230.50;5280465;28;20478;-69
2022/03/16 07:01:02;;;;;;;22.67;19.58;;;;;;;5.46;100.00;102227.78;5290349;28;20024;-68
2022/03/16 07:03:34;;;;;;;21.92;18.80;;;;;;;5.50;100.00;102224.16;5285078;28;20115;-68
2022/03/16 07:06:05;;;;;;;21.08;18.58;;;;;;;5.54;100.00;102228.31;5284562;28;20024;-66
2022/03/16 07:08:37;;;;;;;21.88;18.42;;;;;;;5.59;100.00;102228.97;5283088;28;20038;-69
2022/03/16 07:11:08;;;;;;;21.33;18.00;;;;;;;5.68;100.00;102228.56;5279841;28;20069;-69
2022/03/16 07:13:41;;;;;;;24.45;17.73;;;;;;;5.79;100.00;102225.50;5276736;28;20078;-68
2022/03/16 07:16:13;;;;;;;21.25;17.27;;;;;;;5.79;100.00;102226.34;5285548;28;20025;-66
2022/03/16 07:18:45;;;;;;;22.35;18.02;;;;;;;5.91;100.00;102229.34;5289870;28;20027;-68
2022/03/16 07:21:16;;;;;;;21.17;17.23;;;;;;;6.03;100.00;102241.88;5287437;28;20035;-66
2022/03/16 07:23:47;;;;;;;20.55;17.67;;;;;;;6.13;100.00;102237.09;5287674;28;20089;-69
2022/03/16 07:26:18;;;;;;;19.80;17.30;;;;;;;6.18;100.00;102228.19;5286833;28;20038;-68
2022/03/16 07:28:50;;;;;;;20.33;17.35;;;;;;;6.31;100.00;102215.47;5287538;28;20012;-68
2022/03/16 07:31:22;;;;;;;19.23;17.05;;;;;;;6.33;100.00;102218.88;5285605;28;20055;-69
2022/03/16 07:33:53;;;;;;;19.25;17.00;;;;;;;6.44;100.00;102215.75;5284089;28;20020;-67
2022/03/16 07:36:25;;;;;;;19.27;16.65;;;;;;;6.50;100.00;102205.06;5289165;28;20028;-68
2022/03/16 07:38:56;;;;;;;17.67;15.45;;;;;;;6.52;100.00;102198.88;5286045;28;20032;-68
2022/03/16 07:41:27;;;;;;;19.10;17.10;;;;;;;6.62;100.00;102201.88;5283815;28;20105;-68
2022/03/16 07:43:59;;;;;;;18.27;15.65;;;;;;;6.72;100.00;102194.50;5286563;28;20024;-68
2022/03/16 07:46:30;;;;;;;18.63;15.85;;;;;;;6.87;100.00;102204.19;5287606;28;20112;-69
2022/03/16 07:49:02;;;;;;;19.52;15.55;;;;;;;6.98;100.00;102212.34;5285385;28;20051;-68
2022/03/16 07:51:33;;;;;;;20.40;16.17;;;;;;;7.06;100.00;102199.78;5284982;28;20035;-68
2022/03/16 07:54:04;;;;;;;18.88;15.55;;;;;;;7.10;100.00;102199.66;5282400;28;20028;-68
2022/03/16 07:56:36;;;;;;;17.90;14.80;;;;;;;7.19;100.00;102205.25;5286517;28;20079;-68
2022/03/16 07:59:07;;;;;;;18.73;14.98;;;;;;;7.27;100.00;102208.34;5285203;28;20040;-68
2022/03/16 08:01:41;;;;;;;18.88;14.90;;;;;;;7.33;100.00;102215.00;5287800;28;20492;-67
2022/03/16 08:04:12;;;;;;;16.40;14.57;;;;;;;7.44;100.00;102209.25;5286529;28;20023;-67
2022/03/16 08:06:43;;;;;;;17.45;14.38;;;;;;;7.57;100.00;102213.78;5282409;28;20457;-68
2022/03/16 08:09:15;;;;;;;18.20;14.85;;;;;;;7.63;100.00;102204.81;5282891;28;20060;-68
2022/03/16 08:11:46;;;;;;;22.48;14.95;;;;;;;7.67;100.00;102208.94;5282361;28;20024;-68
2022/03/16 08:14:18;;;;;;;17.20;14.43;;;;;;;7.75;100.00;102216.38;5281756;28;20115;-69
2022/03/16 08:16:49;;;;;;;16.42;14.60;;;;;;;7.79;100.00;102210.94;5282008;28;20021;-69
2022/03/16 08:19:21;;;;;;;17.23;15.13;;;;;;;7.80;100.00;102204.81;5286442;28;20036;-69
2022/03/16 08:21:52;;;;;;;19.85;15.23;;;;;;;7.89;100.00;102200.03;5286760;28;20030;-69
2022/03/16 08:24:23;;;;;;;17.73;14.88;;;;;;;7.99;100.00;102194.25;5282645;28;20028;-69
2022/03/16 08:26:54;;;;;;;15.95;14.35;;;;;;;8.08;100.00;102207.75;5279933;28;20020;-67
2022/03/16 08:29:26;;;;;;;17.83;14.98;;;;;;;8.15;100.00;102207.34;5273850;28;20024;-69
2022/03/16 08:31:58;;;;;;;16.95;14.20;;;;;;;8.20;100.00;102207.94;5279664;28;20056;-69
2022/03/16 08:34:30;;;;;;;17.63;14.77;;;;;;;8.33;100.00;102199.44;5274765;28;20438;-67
2022/03/16 08:37:02;;;;;;;16.30;14.55;;;;;;;8.45;100.00;102193.63;5281387;28;20051;-68
2022/03/16 08:39:33;;;;;;;16.92;14.23;;;;;;;8.57;100.00;102202.53;5280171;28;20021;-68
2022/03/16 08:42:06;;;;;;;17.48;14.70;;;;;;;8.69;100.00;102199.25;5279384;28;20078;-69
2022/03/16 08:44:37;;;;;;;17.55;14.35;;;;;;;8.78;100.00;102206.56;5285594;28;20495;-69
2022/03/16 08:47:16;;;;;;;16.67;14.02;;;;;;;8.82;100.00;102215.09;5283206;28;20109;-69
2022/03/16 08:49:51;;;;;;;15.77;13.75;;;;;;;8.86;100.00;102214.81;5284867;28;20021;-68
2022/03/16 08:52:22;;;;;;;17.42;14.75;;;;;;;9.02;100.00;102226.13;5283767;28;20028;-68
2022/03/16 08:54:54;;;;;;;16.70;13.88;;;;;;;9.06;100.00;102215.50;5284655;28;20081;-67
2022/03/16 08:57:25;;;;;;;19.95;15.27;;;;;;;9.19;100.00;102217.31;5281653;28;20103;-69
2022/03/16 08:59:56;;;;;;;17.67;14.38;;;;;;;9.24;100.00;102227.50;5284276;28;20033;-67
2022/03/16 09:02:27;;;;;;;16.98;14.43;;;;;;;9.27;100.00;102235.19;5284937;28;20040;-69
2022/03/16 09:04:59;;;;;;;17.27;14.35;;;;;;;9.46;100.00;102230.56;5283536;28;20024;-69
2022/03/16 09:07:30;;;;;;;19.60;14.60;;;;;;;9.58;100.00;102230.78;5282313;28;20027;-69
2022/03/16 09:10:02;;;;;;;19.65;16.08;;;;;;;9.57;100.00;102234.34;5284128;28;20020;-69
2022/03/16 09:12:33;;;;;;;17.08;14.32;;;;;;;9.73;100.00;102233.34;5285430;28;20137;-71
2022/03/16 09:15:05;;;;;;;18.60;14.77;;;;;;;9.49;100.00;102219.09;5287795;28;20028;-70
2022/03/16 09:17:37;;;;;;;17.83;14.80;;;;;;;9.85;100.00;102225.69;5282435;28;20461;-69
2022/03/16 09:20:08;;;;;;;17.02;14.23;;;;;;;9.96;100.00;102216.31;5276909;28;20021;-69
2022/03/16 09:22:39;;;;;;;17.48;14.57;;;;;;;10.11;100.00;102216.28;5284166;28;20085;-69
2022/03/16 09:25:12;;;;;;;17.90;15.20;;;;;;;10.14;100.00;102221.34;5286384;28;20563;-69
2022/03/16 09:27:43;;;;;;;16.02;13.73;;;;;;;10.19;100.00;102214.03;5287625;28;20036;-69
2022/03/16 09:30:14;;;;;;;18.98;14.80;;;;;;;10.36;100.00;102211.25;5290718;28;20035;-69
2022/03/16 09:32:46;;;;;;;17.48;14.15;;;;;;;10.42;100.00;102203.03;5276522;28;20030;-70
2022/03/16 09:35:17;;;;;;;17.95;14.48;;;;;;;10.57;100.00;102203.84;5280458;28;20408;-69
2022/03/16 09:37:49;;;;;;;20.38;16.00;;;;;;;10.62;100.00;102208.78;5278943;28;20036;-70
2022/03/16 09:40:21;;;;;;;17.75;14.38;;;;;;;10.68;100.00;102196.16;5280705;28;20086;-69
2022/03/16 09:42:53;;;;;;;18.48;14.38;;;;;;;10.81;100.00;102206.69;5264165;28;20622;-70
2022/03/16 09:45:29;;;;;;;19.60;14.88;;;;;;;10.89;100.00;102199.16;5275841;28;20023;-69
2022/03/16 09:48:00;;;;;;;20.27;15.40;;;;;;;10.95;100.00;102197.94;5285736;28;20111;-70
2022/03/16 09:50:32;;;;;;;17.17;14.68;;;;;;;11.07;100.00;102197.13;5284015;28;20139;-69
2022/03/16 09:53:03;;;;;;;22.83;14.90;;;;;;;11.18;100.00;102191.19;5280786;28;20022;-70
2022/03/16 09:55:34;;;;;;;18.05;14.43;;;;;;;11.27;100.00;102181.88;5286545;28;20031;-70
2022/03/16 09:58:06;;;;;;;19.05;15.45;;;;;;;11.39;100.00;102199.41;5284159;28;20407;-69
2022/03/16 10:00:38;;;;;;;19.38;14.88;;;;;;;11.31;100.00;102199.09;5283058;28;20115;-70
2022/03/16 10:03:10;;;;;;;17.23;14.93;;;;;;;11.55;100.00;102184.31;5285318;28;20527;-69
2022/03/16 10:05:44;;;;;;;17.00;14.27;;;;;;;11.65;100.00;102187.16;5282218;28;20016;-69
2022/03/16 10:08:28;;;;;;;19.30;14.07;;;;;;;11.83;100.00;102183.31;5283763;28;20033;-69
2022/03/16 10:14:07;;;;;;;15.70;13.77;;;;;;;11.92;100.00;102174.78;5280808;28;20032;-70
2022/03/16 10:19:57;;;;;;;16.60;13.55;;;;;;;12.20;100.00;102175.50;5286093;28;20040;-70
2022/03/16 10:22:31;;;;;;;14.75;13.00;;;;;;;12.30;100.00;102165.19;5286566;28;20032;-70
2022/03/16 10:25:05;;;;;;;15.80;13.63;;;;;;;12.47;100.00;102162.19;5277419;28;20055;-71
2022/03/16 10:27:37;;;;;;;16.30;12.98;;;;;;;12.32;100.00;102163.28;5283384;28;20401;-70
2022/03/16 10:30:09;;;;;;;14.25;11.90;;;;;;;12.43;100.00;102170.41;5283051;28;20020;-71
2022/03/16 10:32:52;;;;;;;12.23;10.93;;;;;;;12.60;100.00;102173.50;5286451;28;20033;-71
2022/03/16 10:35:25;;;;;;;;;;;;;;;13.02;100.00;102166.03;5287375;28;20122;-72
2022/03/16 10:38:13;;;;;;;14.27;11.85;;;;;;;12.83;100.00;102157.84;5288731;28;19916;-70
2022/03/16 10:40:45;;;;;;;14.73;11.40;;;;;;;12.83;100.00;102169.19;5285902;28;20061;-70
2022/03/16 10:49:07;;;;;;;14.25;10.90;;;;;;;13.26;100.00;102144.13;5285586;28;20032;-70
2022/03/16 10:51:39;;;;;;;12.13;10.70;;;;;;;13.11;100.00;102146.97;5287761;28;20378;-70
2022/03/16 10:54:14;;;;;;;14.40;10.63;;;;;;;13.30;100.00;102142.97;5285911;28;20048;-71
2022/03/16 10:56:47;;;;;;;12.15;10.95;;;;;;;13.20;100.00;102152.47;5287336;28;20150;-70
2022/03/16 10:59:19;;;;;;;;;;;;;;;13.70;100.00;102156.56;5285628;28;20446;-70
2022/03/16 11:01:51;;;;;;;14.25;12.07;;;;;;;13.43;100.00;102161.31;5286681;28;19969;-70
2022/03/16 11:04:25;;;;;;;13.23;11.37;;;;;;;13.48;100.00;102156.50;5287362;28;20542;-70
2022/03/16 11:06:58;;;;;;;11.88;10.60;;;;;;;13.53;100.00;102141.22;5286428;28;20029;-70
2022/03/16 11:09:30;;;;;;;13.25;11.85;;;;;;;13.47;100.00;102144.31;5287767;28;20020;-70
2022/03/16 11:14:53;;;;;;;13.73;10.48;;;;;;;13.31;100.00;102153.38;5286853;28;20032;-71
2022/03/16 11:17:25;;;;;;;12.35;10.45;;;;;;;13.33;100.00;102154.13;5277604;28;20032;-72
2022/03/16 11:19:56;;;;;;;13.10;10.60;;;;;;;13.37;100.00;102157.31;5278242;28;20028;-70
2022/03/16 11:22:33;;;;;;;13.35;11.63;;;;;;;13.36;100.00;102163.56;5281256;28;20036;-71
2022/03/16 11:25:11;;;;;;;12.80;11.43;;;;;;;13.52;100.00;102163.22;5285873;28;20406;-70
2022/03/16 11:27:51;;;;;;;15.35;11.20;;;;;;;13.59;100.00;102159.16;5277339;28;20024;-70
2022/03/16 11:30:35;;;;;;;14.13;10.70;;;;;;;13.60;100.00;102153.81;5278862;28;20063;-70
2022/03/16 11:33:08;;;;;;;;;;;;;;;14.03;100.00;102152.25;5283028;28;20493;-70
2022/03/16 11:35:45;;;;;;;11.87;10.37;;;;;;;13.77;100.00;102163.03;5279030;28;19915;-70
2022/03/16 11:38:17;;;;;;;13.30;10.65;;;;;;;13.81;100.00;102169.72;5282761;28;20587;-70
2022/03/16 11:40:51;;;;;;;15.90;11.30;;;;;;;13.77;100.00;102160.41;5281675;28;20458;-70
2022/03/16 11:43:24;;;;;;;14.27;11.18;;;;;;;13.97;100.00;102160.63;5274536;28;20599;-71
2022/03/16 11:45:58;;;;;;;11.48;10.27;;;;;;;13.95;100.00;102159.94;5284575;28;20032;-71